| time (UTC) | temp C | wind direction | speed KPH | gust KPH | rain 1hr cm | rain 24hr cm | rain mn cm | humidity % | barometer mb |
| 20260506003025 | 12 | 219 | 0.0 | 0.0 | 0.05 | 0.81 | 0.81 | 100 | 1002.7 |
| 20260506001521 | 12 | 219 | 1.6 | 8.0 | 0.03 | 0.79 | 0.79 | 100 | 1002.6 |
| 20260506000026 | 12 | 210 | 3.2 | 8.0 | 0.03 | 0.79 | 0.79 | 100 | 1002.6 |
| 20260505234529 | 12 | 244 | 3.2 | 9.7 | 0.00 | 0.79 | 0.79 | 100 | 1002.2 |
| 20260505233007 | 12 | 250 | 0.0 | 9.7 | 0.05 | 0.79 | 0.79 | 100 | 1002.0 |
| 20260505231506 | 12 | 245 | 4.8 | 12.9 | 0.05 | 0.79 | 0.79 | 100 | 1001.7 |
| 20260505230109 | 13 | 257 | 3.2 | 12.9 | 0.05 | 0.79 | 0.79 | 100 | 1001.6 |
| 20260505224557 | 14 | 248 | 8.0 | 30.6 | 0.05 | 0.79 | 0.79 | 100 | 1001.5 |
| 20260505223049 | 16 | 324 | 8.0 | 27.4 | 0.00 | 0.71 | 0.71 | 100 | 1001.2 |
| 20260505221555 | 17 | 300 | 6.4 | 27.4 | 0.00 | 0.71 | 0.71 | 28 | 1000.5 |
| 20260505220043 | 18 | 196 | 9.7 | 25.7 | 0.00 | 0.71 | 0.71 | 49 | 1000.0 |
| 20260505214537 | 19 | 271 | 11.3 | 33.8 | 0.00 | 0.71 | 0.71 | 48 | 999.5 |
| 20260505213034 | 20 | 207 | 11.3 | 27.4 | 0.00 | 0.71 | 0.71 | 47 | 999.8 |
| 20260505211532 | 20 | 192 | 11.3 | 38.6 | 0.00 | 0.71 | 0.71 | 48 | 999.4 |
| 20260505210029 | 20 | 229 | 11.3 | 35.4 | 0.00 | 0.71 | 0.71 | 46 | 999.2 |
| 20260505204519 | 20 | 220 | 11.3 | 32.2 | 0.00 | 0.71 | 0.71 | 39 | 999.0 |
| 20260505203015 | 19 | 187 | 9.7 | 20.9 | 0.00 | 0.71 | 0.71 | 21 | 998.9 |
| 20260505201510 | 18 | 175 | 11.3 | 22.5 | 0.00 | 0.71 | 0.71 | 100 | 998.8 |
| 20260505200005 | 17 | 186 | 8.0 | 16.1 | 0.00 | 0.71 | 0.71 | 100 | 999.1 |
| 20260505194502 | 16 | 192 | 6.4 | 20.9 | 0.05 | 0.71 | 0.71 | 100 | 999.4 |
| 20260505193103 | 15 | 194 | 6.4 | 14.5 | 0.18 | 0.71 | 0.71 | 100 | 999.5 |
| 20260505191606 | 14 | 237 | 8.0 | 14.5 | 0.36 | 0.71 | 0.71 | 100 | 999.8 |
| 20260505190049 | 13 | 200 | 3.2 | 12.9 | 0.46 | 0.71 | 0.71 | 100 | 999.9 |
| 20260505184544 | 13 | 240 | 1.6 | 6.4 | 0.48 | 0.69 | 0.69 | 100 | 1000.2 |
| 20260505183041 | 13 | 240 | 1.6 | 8.0 | 0.36 | 0.56 | 0.56 | 100 | 1000.6 |
| 20260505181538 | 14 | 281 | 8.0 | 19.3 | 0.18 | 0.38 | 0.38 | 100 | 1000.2 |
| 20260505180043 | 16 | 310 | 9.7 | 19.3 | 0.08 | 0.28 | 0.28 | 100 | 1000.1 |
| 20260505174529 | 17 | 192 | 1.6 | 11.3 | 0.00 | 0.20 | 0.20 | 29 | 999.4 |
| 20260505173026 | 17 | 182 | 4.8 | 19.3 | 0.00 | 0.20 | 0.20 | 33 | 999.4 |
| 20260505171519 | 17 | 186 | 11.3 | 19.3 | 0.00 | 0.20 | 0.20 | 36 | 999.6 |
| 20260505170014 | 17 | 190 | 9.7 | 17.7 | 0.00 | 0.20 | 0.20 | 33 | 1000.0 |
| 20260505164510 | 17 | 191 | 11.3 | 25.7 | 0.00 | 0.25 | 0.20 | 27 | 1000.3 |
| 20260505163006 | 17 | 184 | 8.0 | 20.9 | 0.00 | 0.25 | 0.20 | 8 | 1000.6 |
| 20260505161501 | 15 | 188 | 11.3 | 20.9 | 0.03 | 0.25 | 0.20 | 100 | 1001.0 |
| 20260505153048 | 14 | 192 | 9.7 | 22.5 | 0.20 | 0.43 | 0.20 | 100 | 1001.6 |
| 20260505151543 | 14 | 186 | 9.7 | 19.3 | 0.18 | 0.41 | 0.18 | 100 | 1002.0 |
| 20260505124602 | 15 | 180 | 4.8 | 17.7 | 0.00 | 0.43 | 0.00 | 53 | 1001.8 |
| 20260505123101 | 15 | 213 | 8.0 | 19.3 | 0.00 | 0.43 | 0.00 | 54 | 1001.8 |
| 20260505121620 | 15 | 188 | 8.0 | 24.1 | 0.00 | 0.43 | 0.00 | 54 | 1001.9 |
| 20260505120047 | 14 | 158 | 11.3 | 24.1 | 0.00 | 0.43 | 0.00 | 54 | 1001.8 |
| 20260505114542 | 14 | 159 | 14.5 | 27.4 | 0.00 | 0.43 | 0.00 | 54 | 1002.0 |
| 20260505113046 | 13 | 193 | 11.3 | 32.2 | 0.00 | 0.43 | 0.00 | 54 | 1001.7 |
| 20260505111539 | 13 | 184 | 9.7 | 30.6 | 0.00 | 0.43 | 0.00 | 53 | 1001.8 |
| 20260505101516 | 11 | 182 | 9.7 | 17.7 | 0.00 | 0.43 | 0.00 | 46 | 1002.2 |
| 20260505100018 | 12 | 179 | 8.0 | 20.9 | 0.00 | 0.43 | 0.00 | 52 | 1002.4 |
| 20260505094512 | 12 | 180 | 11.3 | 27.4 | 0.00 | 0.43 | 0.00 | 54 | 1002.3 |
| 20260505093004 | 12 | 176 | 14.5 | 24.1 | 0.00 | 0.43 | 0.00 | 54 | 1002.2 |
| 20260505091618 | 12 | 178 | 14.5 | 25.7 | 0.00 | 0.43 | 0.00 | 53 | 1002.3 |
| 20260505090101 | 12 | 173 | 9.7 | 25.7 | 0.00 | 0.43 | 0.00 | 49 | 1002.2 |
| 20260505084550 | 11 | 185 | 9.7 | 24.1 | 0.00 | 0.43 | 0.00 | 44 | 1002.3 |
| 20260505083051 | 11 | 165 | 11.3 | 29.0 | 0.00 | 0.43 | 0.00 | 40 | 1002.3 |
| 20260505081545 | 11 | 182 | 9.7 | 17.7 | 0.00 | 0.43 | 0.00 | 31 | 1002.6 |
| 20260505080046 | 10 | 186 | 6.4 | 20.9 | 0.00 | 0.43 | 0.00 | 3 | 1002.9 |
| 20260505074533 | 7 | 90 | 1.6 | 8.0 | 0.00 | 0.43 | 0.00 | 100 | 1003.1 |
| 20260505073031 | 6 | 90 | 0.0 | 11.3 | 0.00 | 0.43 | 0.00 | 100 | 1003.0 |
| 20260505071534 | 6 | 94 | 3.2 | 9.7 | 0.00 | 0.43 | 0.00 | 100 | 1003.2 |
| 20260505070020 | 6 | 94 | 3.2 | 11.3 | 0.00 | 0.43 | 0.00 | 100 | 1003.3 |
| 20260505064515 | 6 | 117 | 0.0 | 4.8 | 0.00 | 0.43 | 0.00 | 100 | 1003.4 |
| 20260505063015 | 6 | 117 | 0.0 | 4.8 | 0.00 | 0.43 | 0.00 | 100 | 1003.7 |
| 20260505061507 | 6 | 117 | 0.0 | 4.8 | 0.00 | 0.43 | 0.00 | 100 | 1003.7 |
| 20260505060002 | 6 | 117 | 0.0 | 8.0 | 0.00 | 0.43 | 0.00 | 100 | 1003.9 |
| 20260505054621 | 6 | 76 | 3.2 | 12.9 | 0.00 | 0.43 | 0.00 | 100 | 1004.1 |
| 20260505053053 | 6 | 74 | 3.2 | 11.3 | 0.00 | 0.43 | 0.00 | 100 | 1004.4 |
| 20260505051549 | 6 | 84 | 4.8 | 11.3 | 0.00 | 0.43 | 0.00 | 100 | 1004.5 |
| 20260505041544 | 5 | 34 | 4.8 | 8.0 | 0.00 | 0.43 | 0.00 | 100 | 1005.2 |
| 20260505040027 | 5 | 30 | 1.6 | 6.4 | 0.00 | 0.43 | 0.00 | 100 | 1005.2 |
| 20260505034523 | 6 | 21 | 3.2 | 8.0 | 0.00 | 0.43 | 0.43 | 100 | 1005.3 |
| 20260505033022 | 5 | 355 | 4.8 | 9.7 | 0.00 | 0.43 | 0.43 | 100 | 1005.5 |
| 20260505031525 | 5 | 293 | 1.6 | 4.8 | 0.00 | 0.43 | 0.43 | 100 | 1005.5 |
| 20260505030009 | 5 | 292 | 0.0 | 6.4 | 0.00 | 0.43 | 0.43 | 100 | 1005.8 |
| 20260505024505 | 5 | 291 | 0.0 | 6.4 | 0.00 | 0.43 | 0.43 | 100 | 1005.9 |
| 20260505023001 | 5 | 291 | 0.0 | 3.2 | 0.00 | 0.43 | 0.43 | 100 | 1005.9 |
| 20260505021559 | 5 | 291 | 0.0 | 3.2 | 0.00 | 0.43 | 0.43 | 100 | 1005.9 |
| 20260505014548 | 5 | 275 | 0.0 | 4.8 | 0.00 | 0.43 | 0.43 | 100 | 1006.2 |
| 20260505013043 | 5 | 275 | 0.0 | 3.2 | 0.00 | 0.43 | 0.43 | 100 | 1006.4 |
| 20260505011539 | 5 | 275 | 0.0 | 1.6 | 0.00 | 0.43 | 0.43 | 100 | 1006.3 |
| 20260505010052 | 5 | 275 | 0.0 | 1.6 | 0.00 | 0.43 | 0.43 | 100 | 1006.2 |
| 20260505004531 | 6 | 275 | 0.0 | 0.0 | 0.00 | 0.43 | 0.43 | 100 | 1006.2 |